sensor_id;sensor_type;location;lat;lon;timestamp;pressure;altitude;pressure_sealevel;temperature;humidity
7930;BME280;4010;42.698;23.124;2023-11-19T00:02:25;118349.16;;;-140.64;82.57
7930;BME280;4010;42.698;23.124;2023-11-19T00:04:52;118349.16;;;-140.64;82.94
7930;BME280;4010;42.698;23.124;2023-11-19T00:07:18;118349.16;;;-140.64;82.57
7930;BME280;4010;42.698;23.124;2023-11-19T00:09:45;118349.16;;;-140.64;82.57
7930;BME280;4010;42.698;23.124;2023-11-19T00:12:12;118349.16;;;-140.64;83.50
7930;BME280;4010;42.698;23.124;2023-11-19T00:14:39;118349.16;;;-140.64;83.21
7930;BME280;4010;42.698;23.124;2023-11-19T00:17:07;118349.16;;;-140.64;82.89
7930;BME280;4010;42.698;23.124;2023-11-19T00:19:34;118349.16;;;-140.64;83.37
7930;BME280;4010;42.698;23.124;2023-11-19T00:22:01;118349.16;;;-140.64;83.17
7930;BME280;4010;42.698;23.124;2023-11-19T00:24:29;118349.16;;;-140.64;83.75
7930;BME280;4010;42.698;23.124;2023-11-19T00:26:56;118349.16;;;-140.64;84.09
7930;BME280;4010;42.698;23.124;2023-11-19T00:29:23;118349.16;;;-140.64;84.07
7930;BME280;4010;42.698;23.124;2023-11-19T00:31:50;118349.16;;;-140.64;83.75
7930;BME280;4010;42.698;23.124;2023-11-19T00:34:18;118349.16;;;-140.64;83.90
7930;BME280;4010;42.698;23.124;2023-11-19T00:36:47;118349.16;;;-140.64;83.62
7930;BME280;4010;42.698;23.124;2023-11-19T00:39:14;118349.16;;;-140.64;84.06
7930;BME280;4010;42.698;23.124;2023-11-19T00:41:41;118349.16;;;-140.64;84.06
7930;BME280;4010;42.698;23.124;2023-11-19T00:44:08;118349.16;;;-140.64;83.23
7930;BME280;4010;42.698;23.124;2023-11-19T00:46:35;118349.16;;;-140.64;83.27
7930;BME280;4010;42.698;23.124;2023-11-19T00:49:02;118349.16;;;-140.64;83.42
7930;BME280;4010;42.698;23.124;2023-11-19T00:51:30;118349.16;;;-140.64;84.17
7930;BME280;4010;42.698;23.124;2023-11-19T00:53:57;118349.16;;;-140.64;83.41
7930;BME280;4010;42.698;23.124;2023-11-19T00:56:24;118349.16;;;-140.64;83.53
7930;BME280;4010;42.698;23.124;2023-11-19T00:58:51;118349.16;;;-140.64;83.66
7930;BME280;4010;42.698;23.124;2023-11-19T01:01:18;118349.16;;;-140.64;83.77
7930;BME280;4010;42.698;23.124;2023-11-19T01:03:44;118349.16;;;-140.64;83.51
7930;BME280;4010;42.698;23.124;2023-11-19T01:06:11;118349.16;;;-140.64;83.04
7930;BME280;4010;42.698;23.124;2023-11-19T01:08:42;118349.16;;;-140.64;83.09
7930;BME280;4010;42.698;23.124;2023-11-19T01:11:09;118349.16;;;-140.64;82.63
7930;BME280;4010;42.698;23.124;2023-11-19T01:13:35;118349.16;;;-140.64;82.38
7930;BME280;4010;42.698;23.124;2023-11-19T01:16:02;118349.16;;;-140.64;82.53
7930;BME280;4010;42.698;23.124;2023-11-19T01:18:29;118349.16;;;-140.64;82.48
7930;BME280;4010;42.698;23.124;2023-11-19T01:20:56;118349.16;;;-140.64;82.35
7930;BME280;4010;42.698;23.124;2023-11-19T01:23:23;118349.16;;;-140.64;82.34
7930;BME280;4010;42.698;23.124;2023-11-19T01:25:51;118349.16;;;-140.64;82.41
7930;BME280;4010;42.698;23.124;2023-11-19T01:28:18;118349.16;;;-140.64;82.61
7930;BME280;4010;42.698;23.124;2023-11-19T01:30:44;118349.16;;;-140.64;82.29
7930;BME280;4010;42.698;23.124;2023-11-19T01:33:11;118349.16;;;-140.64;82.76
7930;BME280;4010;42.698;23.124;2023-11-19T01:35:38;118349.16;;;-140.64;82.44
7930;BME280;4010;42.698;23.124;2023-11-19T01:38:06;118349.16;;;-140.64;83.02
7930;BME280;4010;42.698;23.124;2023-11-19T01:40:33;118349.16;;;-140.64;83.01
7930;BME280;4010;42.698;23.124;2023-11-19T01:43:04;118349.16;;;-140.64;83.13
7930;BME280;4010;42.698;23.124;2023-11-19T01:45:31;118349.16;;;-140.64;83.37
7930;BME280;4010;42.698;23.124;2023-11-19T01:47:59;118349.16;;;-140.64;83.90
7930;BME280;4010;42.698;23.124;2023-11-19T01:50:27;118349.16;;;-140.64;83.37
7930;BME280;4010;42.698;23.124;2023-11-19T01:52:55;118349.16;;;-140.64;83.83
7930;BME280;4010;42.698;23.124;2023-11-19T01:55:24;118349.16;;;-140.64;83.90
7930;BME280;4010;42.698;23.124;2023-11-19T01:57:52;118349.16;;;-140.64;83.55
7930;BME280;4010;42.698;23.124;2023-11-19T02:00:21;118349.16;;;-140.64;83.24
7930;BME280;4010;42.698;23.124;2023-11-19T02:02:48;118349.16;;;-140.64;83.72
7930;BME280;4010;42.698;23.124;2023-11-19T02:05:15;118349.16;;;-140.64;83.67
7930;BME280;4010;42.698;23.124;2023-11-19T02:07:42;118349.16;;;-140.64;83.70
7930;BME280;4010;42.698;23.124;2023-11-19T02:10:11;118349.16;;;-140.64;83.88
7930;BME280;4010;42.698;23.124;2023-11-19T02:12:40;118349.16;;;-140.64;83.71
7930;BME280;4010;42.698;23.124;2023-11-19T02:15:09;118349.16;;;-140.64;83.59
7930;BME280;4010;42.698;23.124;2023-11-19T02:17:37;118349.16;;;-140.64;83.85
7930;BME280;4010;42.698;23.124;2023-11-19T02:20:05;118349.16;;;-140.64;83.98
7930;BME280;4010;42.698;23.124;2023-11-19T02:22:34;118349.16;;;-140.64;84.20
7930;BME280;4010;42.698;23.124;2023-11-19T02:25:07;118349.16;;;-140.64;83.62
7930;BME280;4010;42.698;23.124;2023-11-19T02:27:45;118349.16;;;-140.64;83.62
7930;BME280;4010;42.698;23.124;2023-11-19T02:30:12;118349.16;;;-140.64;83.85
7930;BME280;4010;42.698;23.124;2023-11-19T02:32:41;118349.16;;;-140.64;83.81
7930;BME280;4010;42.698;23.124;2023-11-19T02:35:08;118349.16;;;-140.64;83.93
7930;BME280;4010;42.698;23.124;2023-11-19T02:37:34;118349.16;;;-140.64;84.07
7930;BME280;4010;42.698;23.124;2023-11-19T02:40:01;118349.16;;;-140.64;84.23
7930;BME280;4010;42.698;23.124;2023-11-19T02:42:30;118349.16;;;-140.64;83.81
7930;BME280;4010;42.698;23.124;2023-11-19T02:44:58;118349.16;;;-140.64;83.76
7930;BME280;4010;42.698;23.124;2023-11-19T02:47:24;118349.16;;;-140.64;83.91
7930;BME280;4010;42.698;23.124;2023-11-19T02:49:51;118349.16;;;-140.64;84.10
7930;BME280;4010;42.698;23.124;2023-11-19T02:52:18;118349.16;;;-140.64;84.74
7930;BME280;4010;42.698;23.124;2023-11-19T02:54:45;118349.16;;;-140.64;84.97
7930;BME280;4010;42.698;23.124;2023-11-19T02:57:12;118349.16;;;-140.64;85.34
7930;BME280;4010;42.698;23.124;2023-11-19T02:59:39;118349.16;;;-140.64;85.49
7930;BME280;4010;42.698;23.124;2023-11-19T03:02:09;118349.16;;;-140.64;85.65
7930;BME280;4010;42.698;23.124;2023-11-19T03:04:37;118349.16;;;-140.64;86.43
7930;BME280;4010;42.698;23.124;2023-11-19T03:07:05;118349.16;;;-140.64;86.34
7930;BME280;4010;42.698;23.124;2023-11-19T03:09:32;118349.16;;;-140.64;86.33
7930;BME280;4010;42.698;23.124;2023-11-19T03:11:59;118349.16;;;-140.64;86.22
7930;BME280;4010;42.698;23.124;2023-11-19T03:14:26;118349.16;;;-140.64;85.93
7930;BME280;4010;42.698;23.124;2023-11-19T03:16:52;118349.16;;;-140.64;86.38
7930;BME280;4010;42.698;23.124;2023-11-19T03:19:21;118349.16;;;-140.64;86.51
7930;BME280;4010;42.698;23.124;2023-11-19T03:21:47;118349.16;;;-140.64;86.95
7930;BME280;4010;42.698;23.124;2023-11-19T03:24:14;118349.16;;;-140.64;86.77
7930;BME280;4010;42.698;23.124;2023-11-19T03:26:42;118349.16;;;-140.64;86.57
7930;BME280;4010;42.698;23.124;2023-11-19T03:29:09;118349.16;;;-140.64;86.31
7930;BME280;4010;42.698;23.124;2023-11-19T03:31:36;118349.16;;;-140.64;86.56
7930;BME280;4010;42.698;23.124;2023-11-19T03:34:03;118349.16;;;-140.64;86.20
7930;BME280;4010;42.698;23.124;2023-11-19T03:36:34;118349.16;;;-140.64;85.76
7930;BME280;4010;42.698;23.124;2023-11-19T03:39:01;118349.16;;;-140.64;85.33
7930;BME280;4010;42.698;23.124;2023-11-19T03:41:29;118349.16;;;-140.64;84.74
7930;BME280;4010;42.698;23.124;2023-11-19T03:43:56;118349.16;;;-140.64;84.23
7930;BME280;4010;42.698;23.124;2023-11-19T03:46:22;118349.16;;;-140.64;84.11
7930;BME280;4010;42.698;23.124;2023-11-19T03:48:50;118349.16;;;-140.64;83.39
7930;BME280;4010;42.698;23.124;2023-11-19T03:51:16;118349.16;;;-140.64;82.68
7930;BME280;4010;42.698;23.124;2023-11-19T03:53:45;118349.16;;;-140.64;82.69
7930;BME280;4010;42.698;23.124;2023-11-19T03:56:12;118349.16;;;-140.64;82.69
7930;BME280;4010;42.698;23.124;2023-11-19T03:58:39;118349.16;;;-140.64;82.43
7930;BME280;4010;42.698;23.124;2023-11-19T04:01:11;118349.16;;;-140.64;82.43
7930;BME280;4010;42.698;23.124;2023-11-19T04:03:38;118349.16;;;-140.64;81.85
7930;BME280;4010;42.698;23.124;2023-11-19T04:06:06;118349.16;;;-140.64;81.95
7930;BME280;4010;42.698;23.124;2023-11-19T04:08:32;118349.16;;;-140.64;81.59
7930;BME280;4010;42.698;23.124;2023-11-19T04:11:03;118349.16;;;-140.64;81.54
7930;BME280;4010;42.698;23.124;2023-11-19T04:13:29;118349.16;;;-140.64;81.81
7930;BME280;4010;42.698;23.124;2023-11-19T04:15:56;118349.16;;;-140.64;81.35
7930;BME280;4010;42.698;23.124;2023-11-19T04:18:23;118349.16;;;-140.64;80.97
7930;BME280;4010;42.698;23.124;2023-11-19T04:20:50;118349.16;;;-140.64;81.06
7930;BME280;4010;42.698;23.124;2023-11-19T04:23:17;118349.16;;;-140.64;81.24
7930;BME280;4010;42.698;23.124;2023-11-19T04:25:43;118349.16;;;-140.64;80.77
7930;BME280;4010;42.698;23.124;2023-11-19T04:28:12;118349.16;;;-140.64;81.66
7930;BME280;4010;42.698;23.124;2023-11-19T04:30:38;118349.16;;;-140.64;81.32
7930;BME280;4010;42.698;23.124;2023-11-19T04:33:05;118349.16;;;-140.64;81.20
7930;BME280;4010;42.698;23.124;2023-11-19T04:35:32;118349.16;;;-140.64;81.13
7930;BME280;4010;42.698;23.124;2023-11-19T04:37:59;118349.16;;;-140.64;80.71
7930;BME280;4010;42.698;23.124;2023-11-19T04:40:25;118349.16;;;-140.64;81.51
7930;BME280;4010;42.698;23.124;2023-11-19T04:42:52;118349.16;;;-140.64;81.45
7930;BME280;4010;42.698;23.124;2023-11-19T04:45:20;118349.16;;;-140.64;81.94
7930;BME280;4010;42.698;23.124;2023-11-19T04:47:47;118349.16;;;-140.64;82.18
7930;BME280;4010;42.698;23.124;2023-11-19T04:50:13;118349.16;;;-140.64;82.64
7930;BME280;4010;42.698;23.124;2023-11-19T04:52:40;118349.16;;;-140.64;83.16
7930;BME280;4010;42.698;23.124;2023-11-19T04:55:07;118349.16;;;-140.64;83.53
7930;BME280;4010;42.698;23.124;2023-11-19T04:57:37;118349.16;;;-140.64;83.95
7930;BME280;4010;42.698;23.124;2023-11-19T05:00:04;118349.16;;;-140.64;84.02
7930;BME280;4010;42.698;23.124;2023-11-19T05:02:34;118349.16;;;-140.64;84.27
7930;BME280;4010;42.698;23.124;2023-11-19T05:05:01;118349.16;;;-140.64;84.49
7930;BME280;4010;42.698;23.124;2023-11-19T05:07:29;118349.16;;;-140.64;83.79
7930;BME280;4010;42.698;23.124;2023-11-19T05:09:55;118349.16;;;-140.64;83.76
7930;BME280;4010;42.698;23.124;2023-11-19T05:12:22;118349.16;;;-140.64;83.08
7930;BME280;4010;42.698;23.124;2023-11-19T05:14:49;118349.16;;;-140.64;83.78
7930;BME280;4010;42.698;23.124;2023-11-19T05:17:17;118349.16;;;-140.64;83.38
7930;BME280;4010;42.698;23.124;2023-11-19T05:19:45;118349.16;;;-140.64;83.08
7930;BME280;4010;42.698;23.124;2023-11-19T05:22:13;118349.16;;;-140.64;83.57
7930;BME280;4010;42.698;23.124;2023-11-19T05:24:40;118349.16;;;-140.64;82.74
7930;BME280;4010;42.698;23.124;2023-11-19T05:27:07;118349.16;;;-140.64;82.81
7930;BME280;4010;42.698;23.124;2023-11-19T05:29:34;118349.16;;;-140.64;82.90
7930;BME280;4010;42.698;23.124;2023-11-19T05:32:01;118349.16;;;-140.64;82.30
7930;BME280;4010;42.698;23.124;2023-11-19T05:34:27;118349.16;;;-140.64;82.59
7930;BME280;4010;42.698;23.124;2023-11-19T05:36:56;118349.16;;;-140.64;82.29
7930;BME280;4010;42.698;23.124;2023-11-19T05:39:23;118349.16;;;-140.64;82.55
7930;BME280;4010;42.698;23.124;2023-11-19T05:41:50;118349.16;;;-140.64;82.10
7930;BME280;4010;42.698;23.124;2023-11-19T05:44:17;118349.16;;;-140.64;81.99
7930;BME280;4010;42.698;23.124;2023-11-19T05:46:44;118349.16;;;-140.64;82.34
7930;BME280;4010;42.698;23.124;2023-11-19T05:49:11;118349.16;;;-140.64;82.80
7930;BME280;4010;42.698;23.124;2023-11-19T05:51:38;118349.16;;;-140.64;82.86
7930;BME280;4010;42.698;23.124;2023-11-19T05:54:08;118349.16;;;-140.64;82.45
7930;BME280;4010;42.698;23.124;2023-11-19T05:56:36;118349.16;;;-140.64;83.34
7930;BME280;4010;42.698;23.124;2023-11-19T05:59:03;118349.16;;;-140.64;82.50
7930;BME280;4010;42.698;23.124;2023-11-19T06:01:33;118349.16;;;-140.64;82.44
7930;BME280;4010;42.698;23.124;2023-11-19T06:04:01;118349.16;;;-140.64;82.60
7930;BME280;4010;42.698;23.124;2023-11-19T06:06:28;118349.16;;;-140.64;82.57
7930;BME280;4010;42.698;23.124;2023-11-19T06:08:54;118349.16;;;-140.64;82.61
7930;BME280;4010;42.698;23.124;2023-11-19T06:11:23;118349.16;;;-140.64;82.49
7930;BME280;4010;42.698;23.124;2023-11-19T06:13:52;118349.16;;;-140.64;82.90
7930;BME280;4010;42.698;23.124;2023-11-19T06:16:19;118349.16;;;-140.64;82.06
7930;BME280;4010;42.698;23.124;2023-11-19T06:18:46;118349.16;;;-140.64;82.30
7930;BME280;4010;42.698;23.124;2023-11-19T06:21:12;118349.16;;;-140.64;81.95
7930;BME280;4010;42.698;23.124;2023-11-19T06:23:39;118349.16;;;-140.64;82.29
7930;BME280;4010;42.698;23.124;2023-11-19T06:26:06;118349.16;;;-140.64;82.81
7930;BME280;4010;42.698;23.124;2023-11-19T06:28:35;118349.16;;;-140.64;82.08
7930;BME280;4010;42.698;23.124;2023-11-19T06:31:02;118349.16;;;-140.64;81.87
7930;BME280;4010;42.698;23.124;2023-11-19T06:33:29;118349.16;;;-140.64;81.99
7930;BME280;4010;42.698;23.124;2023-11-19T06:35:56;118349.16;;;-140.64;82.40
7930;BME280;4010;42.698;23.124;2023-11-19T06:38:23;118349.16;;;-140.64;81.87
7930;BME280;4010;42.698;23.124;2023-11-19T06:40:51;118349.16;;;-140.64;81.87
7930;BME280;4010;42.698;23.124;2023-11-19T06:43:18;118349.16;;;-140.64;82.28
7930;BME280;4010;42.698;23.124;2023-11-19T06:45:46;118349.16;;;-140.64;81.64
7930;BME280;4010;42.698;23.124;2023-11-19T06:48:13;118349.16;;;-140.64;81.42
7930;BME280;4010;42.698;23.124;2023-11-19T06:50:40;118349.16;;;-140.64;81.02
7930;BME280;4010;42.698;23.124;2023-11-19T06:53:06;118349.16;;;-140.64;80.83
7930;BME280;4010;42.698;23.124;2023-11-19T06:55:35;118349.16;;;-140.64;80.52
7930;BME280;4010;42.698;23.124;2023-11-19T06:58:02;118349.16;;;-140.64;81.20
7930;BME280;4010;42.698;23.124;2023-11-19T07:00:29;118349.16;;;-140.64;80.66
7930;BME280;4010;42.698;23.124;2023-11-19T07:02:59;118349.16;;;-140.64;80.23
7930;BME280;4010;42.698;23.124;2023-11-19T07:05:26;118349.16;;;-140.64;79.71
7930;BME280;4010;42.698;23.124;2023-11-19T07:07:53;118349.16;;;-140.64;80.06
7930;BME280;4010;42.698;23.124;2023-11-19T07:10:21;118349.16;;;-140.64;79.98
7930;BME280;4010;42.698;23.124;2023-11-19T07:12:47;118349.16;;;-140.64;79.48
7930;BME280;4010;42.698;23.124;2023-11-19T07:15:15;118349.16;;;-140.64;78.46
7930;BME280;4010;42.698;23.124;2023-11-19T07:17:43;118349.16;;;-140.64;79.27
7930;BME280;4010;42.698;23.124;2023-11-19T07:20:12;118349.16;;;-140.64;79.50
7930;BME280;4010;42.698;23.124;2023-11-19T07:22:42;118349.16;;;-140.64;78.87
7930;BME280;4010;42.698;23.124;2023-11-19T07:25:11;118349.16;;;-140.64;78.74
7930;BME280;4010;42.698;23.124;2023-11-19T07:27:37;118349.16;;;-140.64;80.20
7930;BME280;4010;42.698;23.124;2023-11-19T07:30:07;118349.16;;;-140.64;79.04
7930;BME280;4010;42.698;23.124;2023-11-19T07:32:33;118349.16;;;-140.64;78.89
7930;BME280;4010;42.698;23.124;2023-11-19T07:35:00;118349.16;;;-140.64;79.47
7930;BME280;4010;42.698;23.124;2023-11-19T07:37:29;118349.16;;;-140.64;78.77
7930;BME280;4010;42.698;23.124;2023-11-19T07:39:58;118349.16;;;-140.64;78.13
7930;BME280;4010;42.698;23.124;2023-11-19T07:42:25;118349.16;;;-140.64;77.56
7930;BME280;4010;42.698;23.124;2023-11-19T07:44:51;118349.16;;;-140.64;78.34
7930;BME280;4010;42.698;23.124;2023-11-19T07:47:19;118349.16;;;-140.64;77.80
7930;BME280;4010;42.698;23.124;2023-11-19T07:49:49;118349.16;;;-140.64;77.03
7930;BME280;4010;42.698;23.124;2023-11-19T07:52:16;118349.16;;;-140.64;78.07
7930;BME280;4010;42.698;23.124;2023-11-19T07:54:44;118349.16;;;-140.64;77.24
7930;BME280;4010;42.698;23.124;2023-11-19T07:57:11;118349.16;;;-140.64;76.95
7930;BME280;4010;42.698;23.124;2023-11-19T07:59:38;118349.16;;;-140.64;76.59
7930;BME280;4010;42.698;23.124;2023-11-19T08:02:05;118349.16;;;-140.64;78.13
7930;BME280;4010;42.698;23.124;2023-11-19T08:04:32;118349.16;;;-140.64;76.87
7930;BME280;4010;42.698;23.124;2023-11-19T08:06:59;118349.16;;;-140.64;77.27
7930;BME280;4010;42.698;23.124;2023-11-19T08:09:25;118349.16;;;-140.64;77.42
7930;BME280;4010;42.698;23.124;2023-11-19T08:11:54;118349.16;;;-140.64;77.50
7930;BME280;4010;42.698;23.124;2023-11-19T08:14:21;118349.16;;;-140.64;77.87
7930;BME280;4010;42.698;23.124;2023-11-19T08:16:49;118349.16;;;-140.64;77.32
7930;BME280;4010;42.698;23.124;2023-11-19T08:19:16;118349.16;;;-140.64;76.95
7930;BME280;4010;42.698;23.124;2023-11-19T08:21:42;118349.16;;;-140.64;76.71
7930;BME280;4010;42.698;23.124;2023-11-19T08:24:09;118349.16;;;-140.64;76.71
7930;BME280;4010;42.698;23.124;2023-11-19T08:26:36;118349.16;;;-140.64;76.90
7930;BME280;4010;42.698;23.124;2023-11-19T08:29:04;118349.16;;;-140.64;76.26
7930;BME280;4010;42.698;23.124;2023-11-19T08:31:31;118349.16;;;-140.64;75.51
7930;BME280;4010;42.698;23.124;2023-11-19T08:33:57;118349.16;;;-140.64;75.93
7930;BME280;4010;42.698;23.124;2023-11-19T08:36:24;118349.16;;;-140.64;77.09
7930;BME280;4010;42.698;23.124;2023-11-19T08:38:51;118349.16;;;-140.64;75.99
7930;BME280;4010;42.698;23.124;2023-11-19T08:41:18;118349.16;;;-140.64;75.86
7930;BME280;4010;42.698;23.124;2023-11-19T08:43:45;118349.16;;;-140.64;76.84
7930;BME280;4010;42.698;23.124;2023-11-19T08:46:13;118349.16;;;-140.64;77.41
7930;BME280;4010;42.698;23.124;2023-11-19T08:48:40;118349.16;;;-140.64;77.25
7930;BME280;4010;42.698;23.124;2023-11-19T08:51:07;118349.16;;;-140.64;76.85
7930;BME280;4010;42.698;23.124;2023-11-19T08:53:34;118349.16;;;-140.64;76.59
7930;BME280;4010;42.698;23.124;2023-11-19T08:56:01;118349.16;;;-140.64;77.19
7930;BME280;4010;42.698;23.124;2023-11-19T08:58:28;118349.16;;;-140.64;75.91
7930;BME280;4010;42.698;23.124;2023-11-19T09:00:55;118349.16;;;-140.64;75.84
7930;BME280;4010;42.698;23.124;2023-11-19T09:03:23;118349.16;;;-140.64;75.75
7930;BME280;4010;42.698;23.124;2023-11-19T09:05:51;118349.16;;;-140.64;75.20
7930;BME280;4010;42.698;23.124;2023-11-19T09:08:18;118349.16;;;-140.64;73.38
7930;BME280;4010;42.698;23.124;2023-11-19T09:10:45;118349.16;;;-140.64;73.71
7930;BME280;4010;42.698;23.124;2023-11-19T09:13:14;118349.16;;;-140.64;74.45
7930;BME280;4010;42.698;23.124;2023-11-19T09:15:41;118349.16;;;-140.64;73.84
7930;BME280;4010;42.698;23.124;2023-11-19T09:18:08;118349.16;;;-140.64;74.13
7930;BME280;4010;42.698;23.124;2023-11-19T09:20:36;118349.16;;;-140.64;74.50
7930;BME280;4010;42.698;23.124;2023-11-19T09:23:04;118349.16;;;-140.64;74.80
7930;BME280;4010;42.698;23.124;2023-11-19T09:25:31;118349.16;;;-140.64;75.41
7930;BME280;4010;42.698;23.124;2023-11-19T09:27:57;118349.16;;;-140.64;76.68
7930;BME280;4010;42.698;23.124;2023-11-19T09:30:24;118349.16;;;-140.64;77.03
7930;BME280;4010;42.698;23.124;2023-11-19T09:32:51;118349.16;;;-140.64;76.60
7930;BME280;4010;42.698;23.124;2023-11-19T09:35:17;118349.16;;;-140.64;75.82
7930;BME280;4010;42.698;23.124;2023-11-19T09:37:45;118349.16;;;-140.64;76.68
7930;BME280;4010;42.698;23.124;2023-11-19T09:40:12;118349.16;;;-140.64;77.64
7930;BME280;4010;42.698;23.124;2023-11-19T09:42:43;118349.16;;;-140.64;77.51
7930;BME280;4010;42.698;23.124;2023-11-19T09:45:13;118349.16;;;-140.64;76.38
7930;BME280;4010;42.698;23.124;2023-11-19T09:47:43;118349.16;;;-140.64;77.25
7930;BME280;4010;42.698;23.124;2023-11-19T09:50:15;118349.16;;;-140.64;76.13
7930;BME280;4010;42.698;23.124;2023-11-19T09:52:42;118349.16;;;-140.64;75.60
7930;BME280;4010;42.698;23.124;2023-11-19T09:55:11;118349.16;;;-140.64;76.08
7930;BME280;4010;42.698;23.124;2023-11-19T09:57:39;118349.16;;;-140.64;75.49
7930;BME280;4010;42.698;23.124;2023-11-19T10:00:07;118349.16;;;-140.64;75.43
7930;BME280;4010;42.698;23.124;2023-11-19T10:02:36;118349.16;;;-140.64;73.53
7930;BME280;4010;42.698;23.124;2023-11-19T10:05:06;118349.16;;;-140.64;74.52
7930;BME280;4010;42.698;23.124;2023-11-19T10:07:33;118349.16;;;-140.64;74.15
7930;BME280;4010;42.698;23.124;2023-11-19T10:10:00;118349.16;;;-140.64;73.46
7930;BME280;4010;42.698;23.124;2023-11-19T10:12:28;118349.16;;;-140.64;72.95
7930;BME280;4010;42.698;23.124;2023-11-19T10:14:57;118349.16;;;-140.64;72.57
7930;BME280;4010;42.698;23.124;2023-11-19T10:17:27;118349.16;;;-140.64;72.02
7930;BME280;4010;42.698;23.124;2023-11-19T10:19:54;118349.16;;;-140.64;71.63
7930;BME280;4010;42.698;23.124;2023-11-19T10:22:22;118349.16;;;-140.64;70.70
7930;BME280;4010;42.698;23.124;2023-11-19T10:24:49;118349.16;;;-140.64;71.05
7930;BME280;4010;42.698;23.124;2023-11-19T10:27:16;118349.16;;;-140.64;70.58
7930;BME280;4010;42.698;23.124;2023-11-19T10:29:45;118349.16;;;-140.64;70.94
7930;BME280;4010;42.698;23.124;2023-11-19T10:32:13;118349.16;;;-140.64;71.42
7930;BME280;4010;42.698;23.124;2023-11-19T10:34:40;118349.16;;;-140.64;69.12
7930;BME280;4010;42.698;23.124;2023-11-19T10:37:08;118349.16;;;-140.64;69.69
7930;BME280;4010;42.698;23.124;2023-11-19T10:39:53;118349.16;;;-140.64;70.27
7930;BME280;4010;42.698;23.124;2023-11-19T10:42:20;118349.16;;;-140.64;69.66
7930;BME280;4010;42.698;23.124;2023-11-19T10:44:49;118349.16;;;-140.64;68.61
7930;BME280;4010;42.698;23.124;2023-11-19T10:47:18;118349.16;;;-140.64;66.38
7930;BME280;4010;42.698;23.124;2023-11-19T10:49:46;118349.16;;;-140.64;67.65
7930;BME280;4010;42.698;23.124;2023-11-19T10:52:16;118349.16;;;-140.64;65.60
7930;BME280;4010;42.698;23.124;2023-11-19T10:54:47;118349.16;;;-140.64;65.09
7930;BME280;4010;42.698;23.124;2023-11-19T10:57:20;118349.16;;;-140.64;66.67
7930;BME280;4010;42.698;23.124;2023-11-19T10:59:49;118349.16;;;-140.64;67.27
7930;BME280;4010;42.698;23.124;2023-11-19T11:02:21;118349.16;;;-140.64;65.75
7930;BME280;4010;42.698;23.124;2023-11-19T11:04:49;118349.16;;;-140.64;66.11
7930;BME280;4010;42.698;23.124;2023-11-19T11:07:19;118349.16;;;-140.64;66.39
7930;BME280;4010;42.698;23.124;2023-11-19T11:09:47;118349.16;;;-140.64;67.96
7930;BME280;4010;42.698;23.124;2023-11-19T11:12:17;118349.16;;;-140.64;66.30
7930;BME280;4010;42.698;23.124;2023-11-19T11:14:46;118349.16;;;-140.64;67.11
7930;BME280;4010;42.698;23.124;2023-11-19T11:17:17;118349.16;;;-140.64;68.58
7930;BME280;4010;42.698;23.124;2023-11-19T11:19:44;118349.16;;;-140.64;66.34
7930;BME280;4010;42.698;23.124;2023-11-19T11:22:11;118349.16;;;-140.64;67.59
7930;BME280;4010;42.698;23.124;2023-11-19T11:24:58;118349.16;;;-140.64;65.11
7930;BME280;4010;42.698;23.124;2023-11-19T11:27:43;118349.16;;;-140.64;64.93
7930;BME280;4010;42.698;23.124;2023-11-19T11:30:23;118349.16;;;-140.64;64.49
7930;BME280;4010;42.698;23.124;2023-11-19T11:33:05;118349.16;;;-140.64;66.20
7930;BME280;4010;42.698;23.124;2023-11-19T11:35:41;118349.16;;;-140.64;67.00
7930;BME280;4010;42.698;23.124;2023-11-19T11:38:14;118349.16;;;-140.64;65.31
7930;BME280;4010;42.698;23.124;2023-11-19T11:40:41;118349.16;;;-140.64;64.90
7930;BME280;4010;42.698;23.124;2023-11-19T11:46:08;118349.16;;;-140.64;63.97
7930;BME280;4010;42.698;23.124;2023-11-19T11:48:44;118349.16;;;-140.64;63.08
7930;BME280;4010;42.698;23.124;2023-11-19T11:51:13;118349.16;;;-140.64;61.73
7930;BME280;4010;42.698;23.124;2023-11-19T11:53:41;118349.16;;;-140.64;63.03
7930;BME280;4010;42.698;23.124;2023-11-19T11:56:08;118349.16;;;-140.64;62.83
7930;BME280;4010;42.698;23.124;2023-11-19T11:58:36;118349.16;;;-140.64;62.46
7930;BME280;4010;42.698;23.124;2023-11-19T12:01:04;118349.16;;;-140.64;61.12
7930;BME280;4010;42.698;23.124;2023-11-19T12:03:37;118349.16;;;-140.64;61.88
7930;BME280;4010;42.698;23.124;2023-11-19T12:06:04;118349.16;;;-140.64;63.87
7930;BME280;4010;42.698;23.124;2023-11-19T12:08:34;118349.16;;;-140.64;63.31
7930;BME280;4010;42.698;23.124;2023-11-19T12:11:01;118349.16;;;-140.64;61.05
7930;BME280;4010;42.698;23.124;2023-11-19T12:13:53;118349.16;;;-140.64;63.22
7930;BME280;4010;42.698;23.124;2023-11-19T12:16:21;118349.16;;;-140.64;62.64
7930;BME280;4010;42.698;23.124;2023-11-19T12:18:49;118349.16;;;-140.64;62.71
7930;BME280;4010;42.698;23.124;2023-11-19T12:21:29;118349.16;;;-140.64;64.77
7930;BME280;4010;42.698;23.124;2023-11-19T12:23:58;118349.16;;;-140.64;64.83
7930;BME280;4010;42.698;23.124;2023-11-19T12:26:33;118349.16;;;-140.64;63.73
7930;BME280;4010;42.698;23.124;2023-11-19T12:29:00;118349.16;;;-140.64;63.12
7930;BME280;4010;42.698;23.124;2023-11-19T12:31:29;118349.16;;;-140.64;65.16
7930;BME280;4010;42.698;23.124;2023-11-19T12:33:57;118349.16;;;-140.64;64.37
7930;BME280;4010;42.698;23.124;2023-11-19T12:36:26;118349.16;;;-140.64;64.03
7930;BME280;4010;42.698;23.124;2023-11-19T12:38:53;118349.16;;;-140.64;63.23
7930;BME280;4010;42.698;23.124;2023-11-19T12:41:20;118349.16;;;-140.64;64.59
7930;BME280;4010;42.698;23.124;2023-11-19T12:43:48;118349.16;;;-140.64;63.30
7930;BME280;4010;42.698;23.124;2023-11-19T12:46:19;118349.16;;;-140.64;63.39
7930;BME280;4010;42.698;23.124;2023-11-19T12:48:47;118349.16;;;-140.64;65.74